sensor_id;sensor_type;location;lat;lon;timestamp;temperature;humidity
2867;DHT22;1441;48.886;8.728;2024-01-27T00:01:39;3.90;99.90
2867;DHT22;1441;48.886;8.728;2024-01-27T00:04:05;3.90;99.90
2867;DHT22;1441;48.886;8.728;2024-01-27T00:06:30;3.80;99.90
2867;DHT22;1441;48.886;8.728;2024-01-27T00:08:56;3.80;99.90
2867;DHT22;1441;48.886;8.728;2024-01-27T00:11:21;3.80;99.90
2867;DHT22;1441;48.886;8.728;2024-01-27T00:13:49;3.70;99.90
2867;DHT22;1441;48.886;8.728;2024-01-27T00:16:15;3.50;99.90
2867;DHT22;1441;48.886;8.728;2024-01-27T00:18:40;3.40;99.90
2867;DHT22;1441;48.886;8.728;2024-01-27T00:21:06;3.30;99.90
2867;DHT22;1441;48.886;8.728;2024-01-27T00:23:32;3.30;99.90
2867;DHT22;1441;48.886;8.728;2024-01-27T00:25:58;3.20;99.90
2867;DHT22;1441;48.886;8.728;2024-01-27T00:28:24;3.20;99.90
2867;DHT22;1441;48.886;8.728;2024-01-27T00:30:50;3.30;99.90
2867;DHT22;1441;48.886;8.728;2024-01-27T00:33:15;3.30;99.90
2867;DHT22;1441;48.886;8.728;2024-01-27T00:35:41;3.30;99.90
2867;DHT22;1441;48.886;8.728;2024-01-27T00:38:07;3.40;99.90
2867;DHT22;1441;48.886;8.728;2024-01-27T00:40:32;3.60;99.90
2867;DHT22;1441;48.886;8.728;2024-01-27T00:42:58;3.60;99.90
2867;DHT22;1441;48.886;8.728;2024-01-27T00:45:24;3.40;99.90
2867;DHT22;1441;48.886;8.728;2024-01-27T00:47:50;3.10;99.90
2867;DHT22;1441;48.886;8.728;2024-01-27T00:50:16;2.90;99.90
2867;DHT22;1441;48.886;8.728;2024-01-27T00:52:41;2.90;99.90
2867;DHT22;1441;48.886;8.728;2024-01-27T00:55:07;2.80;99.90
2867;DHT22;1441;48.886;8.728;2024-01-27T00:57:32;2.90;99.90
2867;DHT22;1441;48.886;8.728;2024-01-27T00:59:58;2.90;99.90
2867;DHT22;1441;48.886;8.728;2024-01-27T01:02:24;2.80;99.90
2867;DHT22;1441;48.886;8.728;2024-01-27T01:04:49;2.90;99.90
2867;DHT22;1441;48.886;8.728;2024-01-27T01:07:15;3.10;99.90
2867;DHT22;1441;48.886;8.728;2024-01-27T01:09:41;3.00;99.90
2867;DHT22;1441;48.886;8.728;2024-01-27T01:12:06;2.90;99.90
2867;DHT22;1441;48.886;8.728;2024-01-27T01:14:32;2.90;99.90
2867;DHT22;1441;48.886;8.728;2024-01-27T01:16:58;2.70;99.90
2867;DHT22;1441;48.886;8.728;2024-01-27T01:19:23;2.70;99.90
2867;DHT22;1441;48.886;8.728;2024-01-27T01:21:49;2.60;99.90
2867;DHT22;1441;48.886;8.728;2024-01-27T01:24:15;2.50;99.90
2867;DHT22;1441;48.886;8.728;2024-01-27T01:26:40;2.50;99.90
2867;DHT22;1441;48.886;8.728;2024-01-27T01:29:06;2.40;99.90
2867;DHT22;1441;48.886;8.728;2024-01-27T01:31:31;2.50;99.90
2867;DHT22;1441;48.886;8.728;2024-01-27T01:33:57;2.60;99.90
2867;DHT22;1441;48.886;8.728;2024-01-27T01:36:23;2.40;99.90
2867;DHT22;1441;48.886;8.728;2024-01-27T01:38:48;2.30;99.90
2867;DHT22;1441;48.886;8.728;2024-01-27T01:41:14;2.30;99.90
2867;DHT22;1441;48.886;8.728;2024-01-27T01:43:40;2.30;99.90
2867;DHT22;1441;48.886;8.728;2024-01-27T01:46:05;2.30;99.90
2867;DHT22;1441;48.886;8.728;2024-01-27T01:48:31;2.60;99.90
2867;DHT22;1441;48.886;8.728;2024-01-27T01:50:58;2.60;99.90
2867;DHT22;1441;48.886;8.728;2024-01-27T01:53:25;2.50;99.90
2867;DHT22;1441;48.886;8.728;2024-01-27T01:55:51;2.30;99.90
2867;DHT22;1441;48.886;8.728;2024-01-27T01:58:18;2.30;99.90
2867;DHT22;1441;48.886;8.728;2024-01-27T02:00:44;2.50;99.90
2867;DHT22;1441;48.886;8.728;2024-01-27T02:03:13;2.60;99.90
2867;DHT22;1441;48.886;8.728;2024-01-27T02:05:39;2.50;99.90
2867;DHT22;1441;48.886;8.728;2024-01-27T02:08:05;2.30;99.90
2867;DHT22;1441;48.886;8.728;2024-01-27T02:10:30;2.30;99.90
2867;DHT22;1441;48.886;8.728;2024-01-27T02:13:03;2.20;99.90
2867;DHT22;1441;48.886;8.728;2024-01-27T02:15:28;2.20;99.90
2867;DHT22;1441;48.886;8.728;2024-01-27T02:17:54;2.20;99.90
2867;DHT22;1441;48.886;8.728;2024-01-27T02:20:19;2.20;99.90
2867;DHT22;1441;48.886;8.728;2024-01-27T02:22:45;2.10;99.90
2867;DHT22;1441;48.886;8.728;2024-01-27T02:25:10;2.00;99.90
2867;DHT22;1441;48.886;8.728;2024-01-27T02:27:36;2.00;99.90
2867;DHT22;1441;48.886;8.728;2024-01-27T02:30:01;1.90;99.90
2867;DHT22;1441;48.886;8.728;2024-01-27T02:32:27;1.90;99.90
2867;DHT22;1441;48.886;8.728;2024-01-27T02:34:52;2.00;99.90
2867;DHT22;1441;48.886;8.728;2024-01-27T02:37:18;2.10;99.90
2867;DHT22;1441;48.886;8.728;2024-01-27T02:39:44;2.20;99.90
2867;DHT22;1441;48.886;8.728;2024-01-27T02:42:10;2.30;99.90
2867;DHT22;1441;48.886;8.728;2024-01-27T02:44:35;2.30;99.90
2867;DHT22;1441;48.886;8.728;2024-01-27T02:47:01;2.30;99.90
2867;DHT22;1441;48.886;8.728;2024-01-27T02:49:29;2.10;99.90
2867;DHT22;1441;48.886;8.728;2024-01-27T02:51:55;2.00;99.90
2867;DHT22;1441;48.886;8.728;2024-01-27T02:54:20;1.90;99.90
2867;DHT22;1441;48.886;8.728;2024-01-27T02:56:46;1.90;99.90
2867;DHT22;1441;48.886;8.728;2024-01-27T02:59:12;1.80;99.90
2867;DHT22;1441;48.886;8.728;2024-01-27T03:01:37;1.80;99.90
2867;DHT22;1441;48.886;8.728;2024-01-27T03:04:03;1.80;99.90
2867;DHT22;1441;48.886;8.728;2024-01-27T03:06:29;1.80;99.90
2867;DHT22;1441;48.886;8.728;2024-01-27T03:08:54;1.80;99.90
2867;DHT22;1441;48.886;8.728;2024-01-27T03:11:20;1.70;99.90
2867;DHT22;1441;48.886;8.728;2024-01-27T03:13:45;1.70;99.90
2867;DHT22;1441;48.886;8.728;2024-01-27T03:16:11;1.70;99.90
2867;DHT22;1441;48.886;8.728;2024-01-27T03:18:37;1.70;99.90
2867;DHT22;1441;48.886;8.728;2024-01-27T03:21:03;1.70;99.90
2867;DHT22;1441;48.886;8.728;2024-01-27T03:23:29;1.70;99.90
2867;DHT22;1441;48.886;8.728;2024-01-27T03:25:54;1.70;99.90
2867;DHT22;1441;48.886;8.728;2024-01-27T03:28:20;1.80;99.90
2867;DHT22;1441;48.886;8.728;2024-01-27T03:30:46;1.70;99.90
2867;DHT22;1441;48.886;8.728;2024-01-27T03:33:11;1.70;99.90
2867;DHT22;1441;48.886;8.728;2024-01-27T03:35:39;1.60;99.90
2867;DHT22;1441;48.886;8.728;2024-01-27T03:38:05;1.70;99.90
2867;DHT22;1441;48.886;8.728;2024-01-27T03:40:31;1.60;99.90
2867;DHT22;1441;48.886;8.728;2024-01-27T03:42:57;1.60;99.90
2867;DHT22;1441;48.886;8.728;2024-01-27T03:45:22;1.50;99.90
2867;DHT22;1441;48.886;8.728;2024-01-27T03:47:48;1.60;99.90
2867;DHT22;1441;48.886;8.728;2024-01-27T03:50:13;1.70;99.90
2867;DHT22;1441;48.886;8.728;2024-01-27T03:52:39;1.60;99.90
2867;DHT22;1441;48.886;8.728;2024-01-27T03:55:05;1.60;99.90
2867;DHT22;1441;48.886;8.728;2024-01-27T03:57:30;1.50;99.90
2867;DHT22;1441;48.886;8.728;2024-01-27T03:59:56;1.50;99.90
2867;DHT22;1441;48.886;8.728;2024-01-27T04:02:22;1.50;99.90
2867;DHT22;1441;48.886;8.728;2024-01-27T04:04:47;1.60;99.90
2867;DHT22;1441;48.886;8.728;2024-01-27T04:07:13;1.80;99.90
2867;DHT22;1441;48.886;8.728;2024-01-27T04:09:38;1.80;99.90
2867;DHT22;1441;48.886;8.728;2024-01-27T04:12:04;1.70;99.90
2867;DHT22;1441;48.886;8.728;2024-01-27T04:14:30;1.60;99.90
2867;DHT22;1441;48.886;8.728;2024-01-27T04:16:55;1.50;99.90
2867;DHT22;1441;48.886;8.728;2024-01-27T04:19:21;1.40;99.90
2867;DHT22;1441;48.886;8.728;2024-01-27T04:21:46;1.40;99.90
2867;DHT22;1441;48.886;8.728;2024-01-27T04:24:12;1.40;99.90
2867;DHT22;1441;48.886;8.728;2024-01-27T04:26:38;1.20;99.90
2867;DHT22;1441;48.886;8.728;2024-01-27T04:29:03;1.40;99.90
2867;DHT22;1441;48.886;8.728;2024-01-27T04:31:29;1.30;99.90
2867;DHT22;1441;48.886;8.728;2024-01-27T04:33:56;1.40;99.90
2867;DHT22;1441;48.886;8.728;2024-01-27T04:36:28;1.70;99.90
2867;DHT22;1441;48.886;8.728;2024-01-27T04:38:54;1.90;99.90
2867;DHT22;1441;48.886;8.728;2024-01-27T04:41:20;2.00;99.90
2867;DHT22;1441;48.886;8.728;2024-01-27T04:43:46;2.10;99.90
2867;DHT22;1441;48.886;8.728;2024-01-27T04:46:11;2.10;99.90
2867;DHT22;1441;48.886;8.728;2024-01-27T04:48:37;2.00;99.90
2867;DHT22;1441;48.886;8.728;2024-01-27T04:51:02;2.10;99.90
2867;DHT22;1441;48.886;8.728;2024-01-27T04:53:28;2.10;99.90
2867;DHT22;1441;48.886;8.728;2024-01-27T04:55:53;1.80;99.90
2867;DHT22;1441;48.886;8.728;2024-01-27T04:58:19;1.70;99.90
2867;DHT22;1441;48.886;8.728;2024-01-27T05:00:44;1.50;99.90
2867;DHT22;1441;48.886;8.728;2024-01-27T05:03:10;1.40;99.90
2867;DHT22;1441;48.886;8.728;2024-01-27T05:05:41;1.40;99.90
2867;DHT22;1441;48.886;8.728;2024-01-27T05:08:07;1.40;99.90
2867;DHT22;1441;48.886;8.728;2024-01-27T05:10:33;1.20;99.90
2867;DHT22;1441;48.886;8.728;2024-01-27T05:12:58;1.20;99.90
2867;DHT22;1441;48.886;8.728;2024-01-27T05:15:25;1.20;99.90
2867;DHT22;1441;48.886;8.728;2024-01-27T05:17:50;1.10;99.90
2867;DHT22;1441;48.886;8.728;2024-01-27T05:20:17;1.00;99.90
2867;DHT22;1441;48.886;8.728;2024-01-27T05:22:43;1.00;99.90
2867;DHT22;1441;48.886;8.728;2024-01-27T05:25:09;1.00;99.90
2867;DHT22;1441;48.886;8.728;2024-01-27T05:27:37;1.00;99.90
2867;DHT22;1441;48.886;8.728;2024-01-27T05:30:02;1.10;99.90
2867;DHT22;1441;48.886;8.728;2024-01-27T05:32:28;1.30;99.90
2867;DHT22;1441;48.886;8.728;2024-01-27T05:34:53;1.30;99.90
2867;DHT22;1441;48.886;8.728;2024-01-27T05:37:19;1.10;99.90
2867;DHT22;1441;48.886;8.728;2024-01-27T05:39:45;1.10;99.90
2867;DHT22;1441;48.886;8.728;2024-01-27T05:42:10;1.10;99.90
2867;DHT22;1441;48.886;8.728;2024-01-27T05:44:36;0.90;99.90
2867;DHT22;1441;48.886;8.728;2024-01-27T05:47:03;0.80;99.90
2867;DHT22;1441;48.886;8.728;2024-01-27T05:49:28;1.00;99.90
2867;DHT22;1441;48.886;8.728;2024-01-27T05:51:54;0.90;99.90
2867;DHT22;1441;48.886;8.728;2024-01-27T05:54:19;0.90;99.90
2867;DHT22;1441;48.886;8.728;2024-01-27T05:56:45;0.80;99.90
2867;DHT22;1441;48.886;8.728;2024-01-27T05:59:10;0.80;99.90
2867;DHT22;1441;48.886;8.728;2024-01-27T06:01:36;0.80;99.90
2867;DHT22;1441;48.886;8.728;2024-01-27T06:04:02;0.80;99.90
2867;DHT22;1441;48.886;8.728;2024-01-27T06:06:28;0.80;99.90
2867;DHT22;1441;48.886;8.728;2024-01-27T06:08:53;0.70;99.90
2867;DHT22;1441;48.886;8.728;2024-01-27T06:11:26;0.70;99.90
2867;DHT22;1441;48.886;8.728;2024-01-27T06:13:51;0.70;99.90
2867;DHT22;1441;48.886;8.728;2024-01-27T06:16:20;0.70;99.90
2867;DHT22;1441;48.886;8.728;2024-01-27T06:18:46;0.70;99.90
2867;DHT22;1441;48.886;8.728;2024-01-27T06:21:11;0.70;99.90
2867;DHT22;1441;48.886;8.728;2024-01-27T06:23:37;0.90;99.90
2867;DHT22;1441;48.886;8.728;2024-01-27T06:26:09;1.00;99.90
2867;DHT22;1441;48.886;8.728;2024-01-27T06:28:35;0.90;99.90
2867;DHT22;1441;48.886;8.728;2024-01-27T06:31:02;0.80;99.90
2867;DHT22;1441;48.886;8.728;2024-01-27T06:33:28;0.80;99.90
2867;DHT22;1441;48.886;8.728;2024-01-27T06:35:54;0.70;99.90
2867;DHT22;1441;48.886;8.728;2024-01-27T06:38:19;0.70;99.90
2867;DHT22;1441;48.886;8.728;2024-01-27T06:40:45;0.70;99.90
2867;DHT22;1441;48.886;8.728;2024-01-27T06:43:12;0.60;99.90
2867;DHT22;1441;48.886;8.728;2024-01-27T06:45:39;0.60;99.90
2867;DHT22;1441;48.886;8.728;2024-01-27T06:48:06;0.60;99.90
2867;DHT22;1441;48.886;8.728;2024-01-27T06:50:32;0.60;99.90
2867;DHT22;1441;48.886;8.728;2024-01-27T06:52:58;0.60;99.90
2867;DHT22;1441;48.886;8.728;2024-01-27T06:55:24;0.60;99.90
2867;DHT22;1441;48.886;8.728;2024-01-27T06:57:50;0.60;99.90
2867;DHT22;1441;48.886;8.728;2024-01-27T07:00:16;0.50;99.90
2867;DHT22;1441;48.886;8.728;2024-01-27T07:02:42;0.50;99.90
2867;DHT22;1441;48.886;8.728;2024-01-27T07:05:08;0.50;99.90
2867;DHT22;1441;48.886;8.728;2024-01-27T07:07:34;0.50;99.90
2867;DHT22;1441;48.886;8.728;2024-01-27T07:10:01;0.50;99.90
2867;DHT22;1441;48.886;8.728;2024-01-27T07:12:26;0.50;99.90
2867;DHT22;1441;48.886;8.728;2024-01-27T07:14:52;0.50;99.90
2867;DHT22;1441;48.886;8.728;2024-01-27T07:17:18;0.50;99.90
2867;DHT22;1441;48.886;8.728;2024-01-27T07:19:43;0.80;99.90
2867;DHT22;1441;48.886;8.728;2024-01-27T07:22:10;1.20;99.90
2867;DHT22;1441;48.886;8.728;2024-01-27T07:24:35;1.20;99.90
2867;DHT22;1441;48.886;8.728;2024-01-27T07:27:01;1.30;99.90
2867;DHT22;1441;48.886;8.728;2024-01-27T07:29:27;1.30;99.90
2867;DHT22;1441;48.886;8.728;2024-01-27T07:31:53;1.50;99.90
2867;DHT22;1441;48.886;8.728;2024-01-27T07:34:19;1.60;99.90
2867;DHT22;1441;48.886;8.728;2024-01-27T07:36:44;1.50;99.90
2867;DHT22;1441;48.886;8.728;2024-01-27T07:39:10;1.40;99.90
2867;DHT22;1441;48.886;8.728;2024-01-27T07:41:36;1.10;99.90
2867;DHT22;1441;48.886;8.728;2024-01-27T07:44:12;1.00;99.90
2867;DHT22;1441;48.886;8.728;2024-01-27T07:46:39;0.80;99.90
2867;DHT22;1441;48.886;8.728;2024-01-27T07:49:08;0.80;99.90
2867;DHT22;1441;48.886;8.728;2024-01-27T07:51:37;0.70;99.90
2867;DHT22;1441;48.886;8.728;2024-01-27T07:54:02;0.80;99.90
2867;DHT22;1441;48.886;8.728;2024-01-27T07:56:28;0.80;99.90
2867;DHT22;1441;48.886;8.728;2024-01-27T07:58:53;1.00;99.90
2867;DHT22;1441;48.886;8.728;2024-01-27T08:01:19;1.00;99.90
2867;DHT22;1441;48.886;8.728;2024-01-27T08:03:45;1.10;99.90
2867;DHT22;1441;48.886;8.728;2024-01-27T08:06:27;1.20;99.90
2867;DHT22;1441;48.886;8.728;2024-01-27T08:08:53;1.20;99.90
2867;DHT22;1441;48.886;8.728;2024-01-27T08:11:19;1.10;99.90
2867;DHT22;1441;48.886;8.728;2024-01-27T08:13:45;1.10;99.90
2867;DHT22;1441;48.886;8.728;2024-01-27T08:16:10;1.20;99.90
2867;DHT22;1441;48.886;8.728;2024-01-27T08:18:38;1.20;99.90
2867;DHT22;1441;48.886;8.728;2024-01-27T08:21:05;1.20;99.90
2867;DHT22;1441;48.886;8.728;2024-01-27T08:23:30;1.20;99.90
2867;DHT22;1441;48.886;8.728;2024-01-27T08:25:56;1.30;99.90
2867;DHT22;1441;48.886;8.728;2024-01-27T08:28:22;1.30;99.90
2867;DHT22;1441;48.886;8.728;2024-01-27T08:30:47;1.30;99.90
2867;DHT22;1441;48.886;8.728;2024-01-27T08:33:13;1.50;99.90
2867;DHT22;1441;48.886;8.728;2024-01-27T08:35:38;1.50;99.90
2867;DHT22;1441;48.886;8.728;2024-01-27T08:38:04;1.50;99.90
2867;DHT22;1441;48.886;8.728;2024-01-27T08:40:31;1.50;99.90
2867;DHT22;1441;48.886;8.728;2024-01-27T08:42:57;1.60;99.90
2867;DHT22;1441;48.886;8.728;2024-01-27T08:45:22;1.60;99.90
2867;DHT22;1441;48.886;8.728;2024-01-27T08:47:48;1.70;99.90
2867;DHT22;1441;48.886;8.728;2024-01-27T08:50:14;1.80;99.90
2867;DHT22;1441;48.886;8.728;2024-01-27T08:52:39;1.70;99.90
2867;DHT22;1441;48.886;8.728;2024-01-27T08:55:05;1.90;99.90
2867;DHT22;1441;48.886;8.728;2024-01-27T08:57:31;1.90;99.90
2867;DHT22;1441;48.886;8.728;2024-01-27T08:59:57;1.90;99.90
2867;DHT22;1441;48.886;8.728;2024-01-27T09:02:23;2.00;99.90
2867;DHT22;1441;48.886;8.728;2024-01-27T09:04:48;2.00;99.90
2867;DHT22;1441;48.886;8.728;2024-01-27T09:07:14;2.00;99.90
2867;DHT22;1441;48.886;8.728;2024-01-27T09:09:40;2.10;99.90
2867;DHT22;1441;48.886;8.728;2024-01-27T09:12:06;2.10;99.90
2867;DHT22;1441;48.886;8.728;2024-01-27T09:14:32;2.20;99.90
2867;DHT22;1441;48.886;8.728;2024-01-27T09:17:01;2.30;99.90
2867;DHT22;1441;48.886;8.728;2024-01-27T09:19:27;2.60;99.90
2867;DHT22;1441;48.886;8.728;2024-01-27T09:21:53;2.50;99.90
2867;DHT22;1441;48.886;8.728;2024-01-27T09:24:18;2.50;99.90
2867;DHT22;1441;48.886;8.728;2024-01-27T09:26:44;2.50;99.90
2867;DHT22;1441;48.886;8.728;2024-01-27T09:29:09;2.60;99.90
2867;DHT22;1441;48.886;8.728;2024-01-27T09:31:35;2.70;99.90
2867;DHT22;1441;48.886;8.728;2024-01-27T09:34:01;2.80;99.90
2867;DHT22;1441;48.886;8.728;2024-01-27T09:36:28;2.80;99.90
2867;DHT22;1441;48.886;8.728;2024-01-27T09:38:53;2.90;99.90
2867;DHT22;1441;48.886;8.728;2024-01-27T09:41:21;3.00;99.90
2867;DHT22;1441;48.886;8.728;2024-01-27T09:43:47;3.10;99.90
2867;DHT22;1441;48.886;8.728;2024-01-27T09:46:15;3.10;99.90
2867;DHT22;1441;48.886;8.728;2024-01-27T09:48:40;3.10;99.90
2867;DHT22;1441;48.886;8.728;2024-01-27T09:51:08;3.20;99.90
2867;DHT22;1441;48.886;8.728;2024-01-27T09:53:34;3.30;99.90
2867;DHT22;1441;48.886;8.728;2024-01-27T09:56:01;3.30;99.90
2867;DHT22;1441;48.886;8.728;2024-01-27T09:58:28;3.50;99.90
2867;DHT22;1441;48.886;8.728;2024-01-27T10:00:56;3.80;99.90
2867;DHT22;1441;48.886;8.728;2024-01-27T10:03:26;4.20;99.90
2867;DHT22;1441;48.886;8.728;2024-01-27T10:05:53;4.20;99.90
2867;DHT22;1441;48.886;8.728;2024-01-27T10:08:20;4.30;99.90
2867;DHT22;1441;48.886;8.728;2024-01-27T10:10:47;4.30;99.90
2867;DHT22;1441;48.886;8.728;2024-01-27T10:13:14;4.20;99.90
2867;DHT22;1441;48.886;8.728;2024-01-27T10:15:42;4.10;99.90
2867;DHT22;1441;48.886;8.728;2024-01-27T10:18:08;4.00;99.90
2867;DHT22;1441;48.886;8.728;2024-01-27T10:20:39;4.00;99.90
2867;DHT22;1441;48.886;8.728;2024-01-27T10:23:12;4.20;99.90
2867;DHT22;1441;48.886;8.728;2024-01-27T10:25:38;4.60;99.90
2867;DHT22;1441;48.886;8.728;2024-01-27T10:28:06;5.00;99.90
2867;DHT22;1441;48.886;8.728;2024-01-27T10:30:32;5.10;99.90
2867;DHT22;1441;48.886;8.728;2024-01-27T10:32:57;5.20;99.90
2867;DHT22;1441;48.886;8.728;2024-01-27T10:35:23;5.30;99.90
2867;DHT22;1441;48.886;8.728;2024-01-27T10:37:52;5.40;99.30
2867;DHT22;1441;48.886;8.728;2024-01-27T10:40:18;5.40;98.50
2867;DHT22;1441;48.886;8.728;2024-01-27T10:42:44;5.40;98.50
2867;DHT22;1441;48.886;8.728;2024-01-27T10:45:11;5.60;97.90
2867;DHT22;1441;48.886;8.728;2024-01-27T10:47:38;5.70;96.60
2867;DHT22;1441;48.886;8.728;2024-01-27T10:50:08;5.90;97.00
2867;DHT22;1441;48.886;8.728;2024-01-27T10:52:38;6.00;97.10
2867;DHT22;1441;48.886;8.728;2024-01-27T10:55:07;5.90;97.10
2867;DHT22;1441;48.886;8.728;2024-01-27T10:57:36;6.10;96.00
2867;DHT22;1441;48.886;8.728;2024-01-27T11:00:04;6.10;96.80
2867;DHT22;1441;48.886;8.728;2024-01-27T11:02:35;6.00;97.30
2867;DHT22;1441;48.886;8.728;2024-01-27T11:05:03;6.00;96.40
2867;DHT22;1441;48.886;8.728;2024-01-27T11:07:32;6.30;94.60
2867;DHT22;1441;48.886;8.728;2024-01-27T11:09:57;6.50;93.70
2867;DHT22;1441;48.886;8.728;2024-01-27T11:12:23;6.70;93.00
2867;DHT22;1441;48.886;8.728;2024-01-27T11:14:50;6.70;92.70
2867;DHT22;1441;48.886;8.728;2024-01-27T11:17:17;6.80;92.70
2867;DHT22;1441;48.886;8.728;2024-01-27T11:19:44;6.80;91.70
2867;DHT22;1441;48.886;8.728;2024-01-27T11:22:24;6.80;91.40
2867;DHT22;1441;48.886;8.728;2024-01-27T11:27:41;6.80;90.70
2867;DHT22;1441;48.886;8.728;2024-01-27T11:30:27;7.00;89.10
2867;DHT22;1441;48.886;8.728;2024-01-27T11:33:01;6.90;90.10
2867;DHT22;1441;48.886;8.728;2024-01-27T11:35:27;6.70;91.10
2867;DHT22;1441;48.886;8.728;2024-01-27T11:37:54;6.50;91.40
2867;DHT22;1441;48.886;8.728;2024-01-27T11:40:20;6.80;87.80
2867;DHT22;1441;48.886;8.728;2024-01-27T11:42:58;6.90;86.90
2867;DHT22;1441;48.886;8.728;2024-01-27T11:45:24;7.00;85.40
2867;DHT22;1441;48.886;8.728;2024-01-27T11:47:50;6.90;86.50
2867;DHT22;1441;48.886;8.728;2024-01-27T11:50:19;7.10;87.20
2867;DHT22;1441;48.886;8.728;2024-01-27T11:52:46;7.20;87.20
2867;DHT22;1441;48.886;8.728;2024-01-27T11:55:11;7.30;86.80
2867;DHT22;1441;48.886;8.728;2024-01-27T11:57:37;7.40;86.60
2867;DHT22;1441;48.886;8.728;2024-01-27T12:00:03;7.40;86.20
2867;DHT22;1441;48.886;8.728;2024-01-27T12:02:29;7.40;85.00
2867;DHT22;1441;48.886;8.728;2024-01-27T12:04:55;7.30;84.30
2867;DHT22;1441;48.886;8.728;2024-01-27T12:07:20;7.40;85.40
2867;DHT22;1441;48.886;8.728;2024-01-27T12:09:49;7.40;85.70
2867;DHT22;1441;48.886;8.728;2024-01-27T12:12:15;7.50;84.60
2867;DHT22;1441;48.886;8.728;2024-01-27T12:14:45;7.50;83.90
2867;DHT22;1441;48.886;8.728;2024-01-27T12:17:11;7.60;83.60
2867;DHT22;1441;48.886;8.728;2024-01-27T12:19:37;7.50;82.50
2867;DHT22;1441;48.886;8.728;2024-01-27T12:22:04;7.40;83.50
2867;DHT22;1441;48.886;8.728;2024-01-27T12:24:30;7.40;84.20
2867;DHT22;1441;48.886;8.728;2024-01-27T12:26:57;7.40;84.60
2867;DHT22;1441;48.886;8.728;2024-01-27T12:29:24;7.40;85.50
2867;DHT22;1441;48.886;8.728;2024-01-27T12:31:50;7.50;85.90
2867;DHT22;1441;48.886;8.728;2024-01-27T12:34:15;7.50;83.60
2867;DHT22;1441;48.886;8.728;2024-01-27T12:36:42;7.50;82.80
2867;DHT22;1441;48.886;8.728;2024-01-27T12:39:09;7.40;82.70
2867;DHT22;1441;48.886;8.728;2024-01-27T12:41:35;7.40;83.50
2867;DHT22;1441;48.886;8.728;2024-01-27T12:44:02;7.50;83.90
2867;DHT22;1441;48.886;8.728;2024-01-27T12:46:28;7.40;81.50
2867;DHT22;1441;48.886;8.728;2024-01-27T12:48:53;7.50;81.80
2867;DHT22;1441;48.886;8.728;2024-01-27T12:51:19;7.60;81.10
2867;DHT22;1441;48.886;8.728;2024-01-27T12:53:45;7.60;80.70
2867;DHT22;1441;48.886;8.728;2024-01-27T12:56:12;7.70;81.00
2867;DHT22;1441;48.886;8.728;2024-01-27T12:58:38;7.70;80.70
2867;DHT22;1441;48.886;8.728;2024-01-27T13:01:05;7.70;79.50
2867;DHT22;1441;48.886;8.728;2024-01-27T13:03:31;7.80;78.40
2867;DHT22;1441;48.886;8.728;2024-01-27T13:05:57;7.80;79.60
2867;DHT22;1441;48.886;8.728;2024-01-27T13:08:23;7.90;80.40
2867;DHT22;1441;48.886;8.728;2024-01-27T13:10:49;8.00;79.70
2867;DHT22;1441;48.886;8.728;2024-01-27T13:13:15;8.00;80.50
2867;DHT22;1441;48.886;8.728;2024-01-27T13:15:40;8.20;80.60
2867;DHT22;1441;48.886;8.728;2024-01-27T13:18:06;8.20;79.10
2867;DHT22;1441;48.886;8.728;2024-01-27T13:20:31;8.20;78.40
2867;DHT22;1441;48.886;8.728;2024-01-27T13:22:58;8.20;79.10
2867;DHT22;1441;48.886;8.728;2024-01-27T13:25:24;8.20;79.70
2867;DHT22;1441;48.886;8.728;2024-01-27T13:27:49;8.20;80.30
2867;DHT22;1441;48.886;8.728;2024-01-27T13:30:15;8.30;81.10
2867;DHT22;1441;48.886;8.728;2024-01-27T13:32:43;8.30;80.40
2867;DHT22;1441;48.886;8.728;2024-01-27T13:35:08;8.40;79.70
2867;DHT22;1441;48.886;8.728;2024-01-27T13:37:34;8.40;79.80
2867;DHT22;1441;48.886;8.728;2024-01-27T13:40:00;8.40;80.00
2867;DHT22;1441;48.886;8.728;2024-01-27T13:42:26;8.40;79.30
2867;DHT22;1441;48.886;8.728;2024-01-27T13:44:52;8.30;78.90
2867;DHT22;1441;48.886;8.728;2024-01-27T13:47:17;8.30;78.90
2867;DHT22;1441;48.886;8.728;2024-01-27T13:49:43;8.20;77.60
2867;DHT22;1441;48.886;8.728;2024-01-27T13:52:09;8.30;77.40
2867;DHT22;1441;48.886;8.728;2024-01-27T13:54:35;8.30;78.20
2867;DHT22;1441;48.886;8.728;2024-01-27T13:57:02;8.40;78.10
2867;DHT22;1441;48.886;8.728;2024-01-27T13:59:27;8.30;78.70
2867;DHT22;1441;48.886;8.728;2024-01-27T14:01:53;8.30;79.90
2867;DHT22;1441;48.886;8.728;2024-01-27T14:04:19;8.30;80.80
2867;DHT22;1441;48.886;8.728;2024-01-27T14:06:45;8.30;81.20
2867;DHT22;1441;48.886;8.728;2024-01-27T14:09:11;8.30;81.30
2867;DHT22;1441;48.886;8.728;2024-01-27T14:11:38;8.30;80.70
2867;DHT22;1441;48.886;8.728;2024-01-27T14:14:04;8.40;81.00
2867;DHT22;1441;48.886;8.728;2024-01-27T14:16:30;8.30;81.50
2867;DHT22;1441;48.886;8.728;2024-01-27T14:18:55;8.30;81.00
2867;DHT22;1441;48.886;8.728;2024-01-27T14:21:22;8.40;82.00
2867;DHT22;1441;48.886;8.728;2024-01-27T14:23:47;8.40;81.00
2867;DHT22;1441;48.886;8.728;2024-01-27T14:26:14;8.40;81.30
2867;DHT22;1441;48.886;8.728;2024-01-27T14:28:41;8.60;81.20
2867;DHT22;1441;48.886;8.728;2024-01-27T14:31:07;8.60;80.80
2867;DHT22;1441;48.886;8.728;2024-01-27T14:33:33;8.60;81.20
2867;DHT22;1441;48.886;8.728;2024-01-27T14:35:59;8.60;80.60
2867;DHT22;1441;48.886;8.728;2024-01-27T14:38:24;8.60;81.70
2867;DHT22;1441;48.886;8.728;2024-01-27T14:40:50;8.70;81.50
2867;DHT22;1441;48.886;8.728;2024-01-27T14:43:15;8.80;81.10
2867;DHT22;1441;48.886;8.728;2024-01-27T14:45:44;8.80;80.20
2867;DHT22;1441;48.886;8.728;2024-01-27T14:48:10;8.80;80.40
2867;DHT22;1441;48.886;8.728;2024-01-27T14:50:35;8.80;80.60
2867;DHT22;1441;48.886;8.728;2024-01-27T14:53:01;8.80;80.70
2867;DHT22;1441;48.886;8.728;2024-01-27T14:55:27;8.80;80.80
2867;DHT22;1441;48.886;8.728;2024-01-27T14:57:56;8.70;79.40
2867;DHT22;1441;48.886;8.728;2024-01-27T15:00:21;8.60;80.00
2867;DHT22;1441;48.886;8.728;2024-01-27T15:02:47;8.50;80.40
2867;DHT22;1441;48.886;8.728;2024-01-27T15:05:13;8.50;81.30
2867;DHT22;1441;48.886;8.728;2024-01-27T15:07:39;8.50;81.60
2867;DHT22;1441;48.886;8.728;2024-01-27T15:10:06;8.40;81.20
2867;DHT22;1441;48.886;8.728;2024-01-27T15:12:31;8.50;82.00
2867;DHT22;1441;48.886;8.728;2024-01-27T15:14:57;8.50;82.80
2867;DHT22;1441;48.886;8.728;2024-01-27T15:17:22;8.50;83.10
2867;DHT22;1441;48.886;8.728;2024-01-27T15:19:49;8.40;83.70
2867;DHT22;1441;48.886;8.728;2024-01-27T15:22:17;8.50;84.10
2867;DHT22;1441;48.886;8.728;2024-01-27T15:24:42;8.40;84.20
2867;DHT22;1441;48.886;8.728;2024-01-27T15:27:08;8.30;84.80
2867;DHT22;1441;48.886;8.728;2024-01-27T15:29:34;8.10;85.20
2867;DHT22;1441;48.886;8.728;2024-01-27T15:31:59;8.10;86.10
2867;DHT22;1441;48.886;8.728;2024-01-27T15:34:25;8.10;86.50
2867;DHT22;1441;48.886;8.728;2024-01-27T15:36:50;8.10;85.90
2867;DHT22;1441;48.886;8.728;2024-01-27T15:39:16;8.10;85.80
2867;DHT22;1441;48.886;8.728;2024-01-27T15:41:42;8.10;85.60
2867;DHT22;1441;48.886;8.728;2024-01-27T15:44:07;7.90;85.80
2867;DHT22;1441;48.886;8.728;2024-01-27T15:46:33;7.80;86.30
2867;DHT22;1441;48.886;8.728;2024-01-27T15:48:58;7.50;86.80
2867;DHT22;1441;48.886;8.728;2024-01-27T15:51:24;7.40;87.00
2867;DHT22;1441;48.886;8.728;2024-01-27T15:53:49;7.40;87.40
2867;DHT22;1441;48.886;8.728;2024-01-27T15:56:15;7.30;87.40
2867;DHT22;1441;48.886;8.728;2024-01-27T15:58:41;7.20;87.90
2867;DHT22;1441;48.886;8.728;2024-01-27T16:01:06;7.10;88.10
2867;DHT22;1441;48.886;8.728;2024-01-27T16:03:32;7.00;88.50
2867;DHT22;1441;48.886;8.728;2024-01-27T16:06:00;7.00;89.10
2867;DHT22;1441;48.886;8.728;2024-01-27T16:08:26;6.90;89.40
2867;DHT22;1441;48.886;8.728;2024-01-27T16:10:51;6.70;90.10
2867;DHT22;1441;48.886;8.728;2024-01-27T16:13:18;6.60;89.90